Time;durP1;ratioP1;P1;durP2;ratioP2;P2;SDS_P1;SDS_P2;PMS_P1;PMS_P2;Temp;Humidity;BMP_temperature;BMP_pressure;BME280_temperature;BME280_humidity;BME280_pressure;Samples;Min_cycle;Max_cycle;Signal;HPM_P1;HPM_P2
2023/05/21 00:00:26;;;;;;;;;;;;;;;18.41;84.09;99679.59;5068609;28;19951;-58
2023/05/21 00:02:51;;;;;;;;;;;;;;;18.43;83.91;99673.16;5069258;28;19919;-59
2023/05/21 00:05:17;;;;;;;;;;;;;;;18.46;84.58;99677.44;5068306;28;19947;-58
2023/05/21 00:07:43;;;;;;;;;;;;;;;18.48;84.08;99675.53;5069682;28;20302;-58
2023/05/21 00:10:08;;;;;;;;;;;;;;;18.45;84.02;99668.50;5058164;28;20266;-60
2023/05/21 00:12:33;;;;;;;;;;;;;;;18.41;84.73;99674.22;5068244;28;19917;-58
2023/05/21 00:15:00;;;;;;;;;;;;;;;18.41;84.54;99658.06;5050584;28;20208;-58
2023/05/21 00:17:25;;;;;;;;;;;;;;;18.43;84.58;99666.91;5067598;28;19919;-58
2023/05/21 00:19:51;;;;;;;;;;;;;;;18.41;85.01;99658.94;5068323;28;20250;-58
2023/05/21 00:22:16;;;;;;;;;;;;;;;18.40;84.40;99649.13;5067509;28;19908;-58
2023/05/21 00:24:44;;;;;;;;;;;;;;;18.37;84.31;99652.84;5068322;28;20272;-58
2023/05/21 00:27:10;;;;;;;;;;;;;;;18.36;84.80;99658.34;5069439;28;19948;-58
2023/05/21 00:29:35;;;;;;;;;;;;;;;18.37;84.50;99655.53;5067973;28;19966;-58
2023/05/21 00:32:03;;;;;;;;;;;;;;;18.36;85.05;99651.16;5069113;28;19926;-58
2023/05/21 00:34:29;;;;;;;;;;;;;;;18.35;84.81;99643.19;5068237;28;19916;-58
2023/05/21 00:36:54;;;;;;;;;;;;;;;18.34;85.15;99647.69;5069389;28;19965;-59
2023/05/21 00:39:20;;;;;;;;;;;;;;;18.37;85.24;99642.09;5069197;28;20014;-59
2023/05/21 00:41:47;;;;;;;;;;;;;;;18.41;85.33;99641.91;5068410;28;19920;-58
2023/05/21 00:44:12;;;;;;;;;;;;;;;18.34;85.43;99639.59;5067168;28;20338;-58
2023/05/21 00:46:38;;;;;;;;;;;;;;;18.37;85.22;99630.44;5052975;28;19916;-57
2023/05/21 00:49:03;;;;;;;;;;;;;;;18.34;85.39;99627.97;5069098;28;19912;-58
2023/05/21 00:51:29;;;;;;;;;;;;;;;18.26;85.48;99622.25;5069041;28;19912;-58
2023/05/21 00:53:54;;;;;;;;;;;;;;;18.08;86.56;99619.03;5068372;28;19913;-59
2023/05/21 00:56:21;;;;;;;;;;;;;;;18.08;87.04;99618.16;5069311;28;20280;-58
2023/05/21 00:58:47;;;;;;;;;;;;;;;18.09;86.54;99620.75;5067919;28;19921;-58
2023/05/21 01:01:12;;;;;;;;;;;;;;;18.05;87.32;99616.56;5072750;28;20272;-62
2023/05/21 01:03:38;;;;;;;;;;;;;;;18.07;86.95;99617.28;5064778;28;19951;-62
2023/05/21 01:06:04;;;;;;;;;;;;;;;18.08;87.06;99613.66;5071974;28;19908;-62
2023/05/21 01:08:29;;;;;;;;;;;;;;;17.96;87.76;99614.50;5072019;28;20168;-62
2023/05/21 01:10:55;;;;;;;;;;;;;;;17.91;87.75;99615.75;5072793;28;19913;-62
2023/05/21 01:13:21;;;;;;;;;;;;;;;17.81;88.53;99618.22;5071678;28;19959;-63
2023/05/21 01:15:48;;;;;;;;;;;;;;;17.78;88.70;99621.13;5071897;28;20368;-62
2023/05/21 01:18:14;;;;;;;;;;;;;;;17.79;88.93;99616.63;5072698;28;19908;-62
2023/05/21 01:20:41;;;;;;;;;;;;;;;17.75;89.30;99615.97;5072078;28;19912;-62
2023/05/21 01:23:07;;;;;;;;;;;;;;;17.77;89.24;99619.41;5070464;28;19912;-63
2023/05/21 01:25:32;;;;;;;;;;;;;;;17.76;89.27;99612.28;5072044;28;19916;-63
2023/05/21 01:27:57;;;;;;;;;;;;;;;17.76;89.75;99617.69;5071675;28;19951;-63
2023/05/21 01:30:23;;;;;;;;;;;;;;;17.75;89.37;99625.84;5063998;28;19912;-63
2023/05/21 01:33:03;;;;;;;;;;;;;;;17.71;90.06;99619.81;5062705;28;19959;-63
2023/05/21 01:35:28;;;;;;;;;;;;;;;17.68;89.86;99614.66;5072286;28;19908;-63
2023/05/21 01:38:12;;;;;;;;;;;;;;;17.70;90.16;99615.41;5071521;28;19962;-63
2023/05/21 01:40:52;;;;;;;;;;;;;;;17.67;90.43;99607.56;5071469;28;20372;-63
2023/05/21 01:43:18;;;;;;;;;;;;;;;17.67;90.34;99607.56;5071358;28;20015;-63
2023/05/21 01:45:44;;;;;;;;;;;;;;;17.70;90.40;99606.47;5071975;28;19916;-63
2023/05/21 01:48:11;;;;;;;;;;;;;;;17.64;90.73;99602.41;5070900;28;19960;-63
2023/05/21 01:50:37;;;;;;;;;;;;;;;17.58;91.17;99600.09;5071605;28;19995;-63
2023/05/21 01:53:04;;;;;;;;;;;;;;;17.60;91.30;99606.25;5071662;28;19943;-63
2023/05/21 01:55:30;;;;;;;;;;;;;;;17.56;91.02;99599.34;5070937;28;19912;-62
2023/05/21 01:57:55;;;;;;;;;;;;;;;17.50;91.39;99594.38;5071742;28;19920;-62
2023/05/21 02:00:21;;;;;;;;;;;;;;;17.52;91.30;99581.69;5070473;28;19920;-62
2023/05/21 02:02:48;;;;;;;;;;;;;;;17.55;91.17;99584.16;5069620;28;19924;-62
2023/05/21 02:05:13;;;;;;;;;;;;;;;17.50;91.48;99589.00;5070672;28;19912;-62
2023/05/21 02:07:39;;;;;;;;;;;;;;;17.44;92.13;99586.69;5070563;28;19912;-62
2023/05/21 02:10:04;;;;;;;;;;;;;;;17.44;92.39;99597.47;5066160;28;19946;-62
2023/05/21 02:12:30;;;;;;;;;;;;;;;17.42;92.17;99585.94;5070754;28;19932;-62
2023/05/21 02:14:56;;;;;;;;;;;;;;;17.41;92.40;99584.22;5069899;28;19966;-62
2023/05/21 02:17:23;;;;;;;;;;;;;;;17.41;92.83;99584.22;5071366;28;19908;-63
2023/05/21 02:19:48;;;;;;;;;;;;;;;17.38;93.18;99597.84;5071336;28;19939;-63
2023/05/21 02:22:13;;;;;;;;;;;;;;;17.40;92.77;99586.97;5070938;28;20562;-62
2023/05/21 02:24:38;;;;;;;;;;;;;;;17.24;93.33;99571.03;5070010;28;20007;-62
2023/05/21 02:27:05;;;;;;;;;;;;;;;17.26;93.52;99585.25;5071120;28;19913;-62
2023/05/21 02:29:30;;;;;;;;;;;;;;;17.25;94.08;99588.88;5071152;28;20030;-62
2023/05/21 02:31:55;;;;;;;;;;;;;;;17.28;93.79;99583.28;5052787;28;19912;-63
2023/05/21 02:34:21;;;;;;;;;;;;;;;17.28;94.25;99579.75;5070173;28;19938;-62
2023/05/21 02:36:51;;;;;;;;;;;;;;;17.29;93.88;99587.72;5070900;28;20291;-62
2023/05/21 02:39:17;;;;;;;;;;;;;;;17.28;94.11;99583.28;5070939;28;19917;-62
2023/05/21 02:41:42;;;;;;;;;;;;;;;17.33;94.08;99575.78;5070461;28;19916;-62
2023/05/21 02:44:08;;;;;;;;;;;;;;;17.33;94.48;99574.94;5067331;28;20414;-62
2023/05/21 02:46:33;;;;;;;;;;;;;;;17.30;94.18;99581.38;5067008;28;19909;-62
2023/05/21 02:48:58;;;;;;;;;;;;;;;17.26;94.09;99579.88;5067401;28;19908;-63
2023/05/21 02:51:23;;;;;;;;;;;;;;;17.29;94.11;99571.59;5050867;28;20011;-62
2023/05/21 02:53:48;;;;;;;;;;;;;;;17.28;94.21;99580.59;5055619;28;19966;-63
2023/05/21 02:56:14;;;;;;;;;;;;;;;17.29;94.23;99574.28;5066471;28;19962;-63
2023/05/21 02:58:40;;;;;;;;;;;;;;;17.27;94.36;99584.25;5069212;28;20603;-62
2023/05/21 03:01:05;;;;;;;;;;;;;;;17.28;94.32;99583.28;5069645;28;19926;-62
2023/05/21 03:03:31;;;;;;;;;;;;;;;17.28;94.48;99585.97;5069970;28;20311;-63
2023/05/21 03:05:57;;;;;;;;;;;;;;;17.25;94.09;99578.13;5069723;28;19913;-62
2023/05/21 03:08:23;;;;;;;;;;;;;;;17.26;94.59;99592.44;5070477;28;19915;-63
2023/05/21 03:10:48;;;;;;;;;;;;;;;17.25;94.23;99591.56;5069159;28;19913;-63
2023/05/21 03:13:14;;;;;;;;;;;;;;;17.25;94.58;99588.03;5070348;28;20391;-63
2023/05/21 03:15:39;;;;;;;;;;;;;;;17.18;94.58;99584.91;5069326;28;19916;-63
2023/05/21 03:18:04;;;;;;;;;;;;;;;17.13;95.31;99590.56;5070278;28;19912;-63
2023/05/21 03:20:30;;;;;;;;;;;;;;;17.19;95.34;99589.28;5069317;28;20006;-62
2023/05/21 03:22:56;;;;;;;;;;;;;;;17.26;94.95;99587.06;5066810;28;19912;-63
2023/05/21 03:25:23;;;;;;;;;;;;;;;17.15;95.37;99593.13;5069006;28;19958;-62
2023/05/21 03:27:49;;;;;;;;;;;;;;;17.15;95.43;99589.59;5069878;28;19919;-63
2023/05/21 03:30:14;;;;;;;;;;;;;;;17.09;95.53;99586.34;5069796;28;19912;-63
2023/05/21 03:32:40;;;;;;;;;;;;;;;17.07;95.56;99584.72;5069832;28;19948;-62
2023/05/21 03:35:05;;;;;;;;;;;;;;;17.08;96.18;99597.22;5068790;28;20007;-62
2023/05/21 03:37:31;;;;;;;;;;;;;;;17.08;96.42;99598.06;5069739;28;19923;-62
2023/05/21 03:39:56;;;;;;;;;;;;;;;17.07;95.71;99596.34;5069413;28;19916;-63
2023/05/21 03:42:21;;;;;;;;;;;;;;;17.08;95.90;99602.59;5069032;28;20412;-62
2023/05/21 03:44:47;;;;;;;;;;;;;;;17.12;95.66;99598.72;5069566;28;19916;-63
2023/05/21 03:47:12;;;;;;;;;;;;;;;17.07;95.45;99601.72;5069694;28;19912;-63
2023/05/21 03:49:37;;;;;;;;;;;;;;;17.02;95.76;99605.66;5067781;28;20468;-63
2023/05/21 03:52:02;;;;;;;;;;;;;;;16.99;96.18;99609.41;5066836;28;19916;-63
2023/05/21 03:54:28;;;;;;;;;;;;;;;16.98;96.72;99601.47;5065704;28;19908;-62
2023/05/21 03:56:53;;;;;;;;;;;;;;;16.98;96.81;99606.84;5067667;28;19912;-62
2023/05/21 03:59:18;;;;;;;;;;;;;;;16.90;96.95;99609.16;5067012;28;20394;-62
2023/05/21 04:01:44;;;;;;;;;;;;;;;16.97;97.04;99611.34;5068257;28;19967;-62
2023/05/21 04:04:09;;;;;;;;;;;;;;;16.94;96.92;99616.03;5067776;28;19916;-62
2023/05/21 04:06:35;;;;;;;;;;;;;;;17.02;96.70;99616.41;5068777;28;19922;-62
2023/05/21 04:09:00;;;;;;;;;;;;;;;17.02;96.76;99614.59;5068782;28;20258;-62
2023/05/21 04:11:26;;;;;;;;;;;;;;;17.03;96.77;99620.84;5067577;28;20381;-62
2023/05/21 04:13:51;;;;;;;;;;;;;;;17.02;96.74;99622.66;5065266;28;19951;-62
2023/05/21 04:16:17;;;;;;;;;;;;;;;17.03;96.91;99626.22;5057155;28;19916;-62
2023/05/21 04:18:43;;;;;;;;;;;;;;;17.06;96.91;99636.75;5068468;28;19981;-61
2023/05/21 04:21:08;;;;;;;;;;;;;;;17.06;97.11;99637.63;5068946;28;20415;-63
2023/05/21 04:23:35;;;;;;;;;;;;;;;17.12;97.21;99638.19;5069420;28;20030;-62
2023/05/21 04:26:00;;;;;;;;;;;;;;;17.12;96.84;99644.41;5068239;28;19920;-62
2023/05/21 04:28:27;;;;;;;;;;;;;;;17.15;97.04;99641.50;5069299;28;20379;-62
2023/05/21 04:30:52;;;;;;;;;;;;;;;17.13;97.35;99642.59;5069453;28;19912;-62
2023/05/21 04:33:19;;;;;;;;;;;;;;;17.19;97.12;99636.81;5070335;28;20399;-62
2023/05/21 04:35:49;;;;;;;;;;;;;;;17.19;96.83;99642.19;5072423;28;19918;-63
2023/05/21 04:38:18;;;;;;;;;;;;;;;17.24;96.94;99640.94;5073088;28;19916;-63
2023/05/21 04:40:43;;;;;;;;;;;;;;;17.25;96.65;99652.56;5073051;28;19923;-63
2023/05/21 04:43:10;;;;;;;;;;;;;;;17.27;96.59;99648.78;5071891;28;19908;-63
2023/05/21 04:45:35;;;;;;;;;;;;;;;17.35;96.26;99653.69;5072849;28;20435;-62
2023/05/21 04:48:01;;;;;;;;;;;;;;;17.40;96.16;99657.75;5071448;28;19916;-62
2023/05/21 04:50:29;;;;;;;;;;;;;;;17.44;95.89;99658.44;5071182;28;19912;-63
2023/05/21 04:52:54;;;;;;;;;;;;;;;17.45;96.54;99650.28;5069719;28;19962;-63
2023/05/21 04:55:20;;;;;;;;;;;;;;;17.50;96.02;99658.91;5054436;28;19920;-63
2023/05/21 04:57:45;;;;;;;;;;;;;;;17.55;95.40;99662.16;5071760;28;20394;-63
2023/05/21 05:00:11;;;;;;;;;;;;;;;17.63;95.40;99659.81;5071685;28;19926;-62
2023/05/21 05:02:36;;;;;;;;;;;;;;;17.70;95.19;99655.75;5072710;28;19920;-63
2023/05/21 05:05:01;;;;;;;;;;;;;;;17.75;94.45;99659.00;5073033;28;19912;-62
2023/05/21 05:07:27;;;;;;;;;;;;;;;17.75;93.79;99659.00;5071132;28;19998;-63
2023/05/21 05:09:52;;;;;;;;;;;;;;;17.76;93.89;99655.34;5072305;28;19958;-63
2023/05/21 05:12:17;;;;;;;;;;;;;;;17.74;93.96;99657.25;5070333;28;20273;-63
2023/05/21 05:14:42;;;;;;;;;;;;;;;17.78;93.84;99663.31;5071565;28;19912;-62
2023/05/21 05:17:09;;;;;;;;;;;;;;;17.84;93.59;99653.00;5072214;28;19919;-62
2023/05/21 05:19:34;;;;;;;;;;;;;;;17.87;93.20;99649.25;5072173;28;19919;-63
2023/05/21 05:21:59;;;;;;;;;;;;;;;17.88;92.45;99645.56;5072378;28;19916;-63
2023/05/21 05:24:25;;;;;;;;;;;;;;;17.99;92.65;99651.94;5071745;28;19994;-63
2023/05/21 05:26:50;;;;;;;;;;;;;;;18.06;92.45;99647.88;5071865;28;19936;-63
2023/05/21 05:29:15;;;;;;;;;;;;;;;18.10;92.01;99648.53;5072318;28;19912;-63
2023/05/21 05:31:40;;;;;;;;;;;;;;;18.14;91.89;99641.94;5070835;28;20006;-63
2023/05/21 05:34:06;;;;;;;;;;;;;;;18.11;92.09;99645.72;5072073;28;19922;-62
2023/05/21 05:36:32;;;;;;;;;;;;;;;18.16;91.83;99640.91;5070662;28;19912;-63
2023/05/21 05:38:57;;;;;;;;;;;;;;;18.24;91.10;99638.53;5071739;28;19923;-63
2023/05/21 05:41:22;;;;;;;;;;;;;;;18.26;90.65;99631.22;5071923;28;19912;-62
2023/05/21 05:43:48;;;;;;;;;;;;;;;18.38;91.05;99637.56;5071339;28;19982;-63
2023/05/21 05:46:13;;;;;;;;;;;;;;;18.53;90.33;99646.44;5052893;28;19923;-62
2023/05/21 05:48:38;;;;;;;;;;;;;;;18.52;89.83;99644.72;5070909;28;19934;-63
2023/05/21 05:51:04;;;;;;;;;;;;;;;18.62;89.66;99641.25;5072068;28;19912;-62
2023/05/21 05:53:30;;;;;;;;;;;;;;;18.70;88.29;99638.84;5071161;28;19977;-62
2023/05/21 05:55:56;;;;;;;;;;;;;;;18.75;88.23;99643.91;5070612;28;19956;-62
2023/05/21 05:58:21;;;;;;;;;;;;;;;18.81;88.11;99635.41;5071844;28;19977;-62
2023/05/21 06:00:46;;;;;;;;;;;;;;;18.89;87.86;99641.97;5071202;28;19916;-62
2023/05/21 06:03:12;;;;;;;;;;;;;;;18.89;87.63;99635.72;5071192;28;19908;-62
2023/05/21 06:05:37;;;;;;;;;;;;;;;19.00;88.09;99638.47;5071354;28;19908;-62
2023/05/21 06:08:02;;;;;;;;;;;;;;;19.15;87.13;99645.44;5067991;28;19919;-62
2023/05/21 06:10:28;;;;;;;;;;;;;;;19.21;86.09;99639.59;5069972;28;20315;-62
2023/05/21 06:12:53;;;;;;;;;;;;;;;19.34;86.25;99635.91;5070871;28;20261;-62
2023/05/21 06:15:18;;;;;;;;;;;;;;;19.49;85.84;99640.16;5069923;28;19913;-62
2023/05/21 06:17:44;;;;;;;;;;;;;;;19.63;84.30;99641.84;5069911;28;19922;-62
2023/05/21 06:20:10;;;;;;;;;;;;;;;19.61;82.99;99649.19;5070800;28;20399;-62
2023/05/21 06:22:35;;;;;;;;;;;;;;;19.65;82.35;99645.28;5071298;28;19982;-62
2023/05/21 06:25:01;;;;;;;;;;;;;;;19.81;82.69;99651.25;5070326;28;20273;-62
2023/05/21 06:27:26;;;;;;;;;;;;;;;19.89;82.34;99643.41;5070816;28;19912;-62
2023/05/21 06:29:51;;;;;;;;;;;;;;;19.96;82.10;99650.09;5070144;28;19923;-62
2023/05/21 06:32:16;;;;;;;;;;;;;;;19.97;81.28;99651.78;5058589;28;20532;-62
2023/05/21 06:34:42;;;;;;;;;;;;;;;20.02;80.61;99655.00;5070860;28;19919;-62
2023/05/21 06:37:07;;;;;;;;;;;;;;;20.10;80.36;99657.13;5068956;28;20388;-62
2023/05/21 06:39:32;;;;;;;;;;;;;;;20.13;80.48;99652.31;5070675;28;19981;-62
2023/05/21 06:41:58;;;;;;;;;;;;;;;20.20;80.59;99648.22;5070665;28;20458;-62
2023/05/21 06:44:23;;;;;;;;;;;;;;;20.29;80.48;99649.34;5070323;28;19959;-61
2023/05/21 06:46:48;;;;;;;;;;;;;;;20.39;81.19;99645.81;5069837;28;19916;-62
2023/05/21 06:49:13;;;;;;;;;;;;;;;20.55;79.76;99648.16;5070352;28;19986;-62
2023/05/21 06:51:39;;;;;;;;;;;;;;;20.54;78.77;99660.78;5070072;28;19927;-62
2023/05/21 06:54:04;;;;;;;;;;;;;;;20.41;78.46;99657.34;5070500;28;19998;-61
2023/05/21 06:56:29;;;;;;;;;;;;;;;20.40;78.39;99658.31;5069123;28;20334;-61
2023/05/21 06:58:55;;;;;;;;;;;;;;;20.54;78.61;99660.78;5067807;28;20033;-61
2023/05/21 07:01:23;;;;;;;;;;;;;;;20.69;77.45;99662.28;5051241;28;20392;-61
2023/05/21 07:03:49;;;;;;;;;;;;;;;20.78;77.99;99666.09;5068959;28;19913;-61
2023/05/21 07:06:15;;;;;;;;;;;;;;;20.92;77.46;99664.00;5070486;28;19912;-62
2023/05/21 07:08:40;;;;;;;;;;;;;;;21.05;77.18;99658.53;5069863;28;19966;-62
2023/05/21 07:11:06;;;;;;;;;;;;;;;21.04;76.56;99666.75;5067355;28;19951;-62
2023/05/21 07:13:31;;;;;;;;;;;;;;;21.10;76.79;99655.44;5069440;28;19912;-62
2023/05/21 07:15:56;;;;;;;;;;;;;;;21.24;77.15;99665.97;5070480;28;19981;-62
2023/05/21 07:18:21;;;;;;;;;;;;;;;21.27;75.59;99663.06;5068328;28;19914;-62
2023/05/21 07:20:47;;;;;;;;;;;;;;;21.26;75.45;99655.91;5051258;28;19924;-63
2023/05/21 07:23:12;;;;;;;;;;;;;;;21.38;75.49;99661.19;5068522;28;19951;-62
2023/05/21 07:25:37;;;;;;;;;;;;;;;21.47;77.04;99659.53;5068997;28;19916;-62
2023/05/21 07:28:03;;;;;;;;;;;;;;;21.52;75.97;99669.00;5068695;28;19908;-62
2023/05/21 07:30:28;;;;;;;;;;;;;;;21.52;75.43;99657.31;5068732;28;20339;-62
2023/05/21 07:32:53;;;;;;;;;;;;;;;21.58;75.77;99667.66;5069231;28;20350;-62
2023/05/21 07:35:18;;;;;;;;;;;;;;;21.59;75.61;99659.41;5068904;28;19908;-62
2023/05/21 07:37:45;;;;;;;;;;;;;;;21.57;75.07;99652.38;5069744;28;20003;-62
2023/05/21 07:40:10;;;;;;;;;;;;;;;21.43;74.84;99653.50;5069084;28;20011;-62
2023/05/21 07:42:35;;;;;;;;;;;;;;;21.41;74.45;99665.47;5069401;28;20007;-62
2023/05/21 07:45:01;;;;;;;;;;;;;;;21.36;75.41;99656.88;5070086;28;19961;-62
2023/05/21 07:47:26;;;;;;;;;;;;;;;21.40;74.93;99658.34;5069571;28;19912;-62
2023/05/21 07:49:51;;;;;;;;;;;;;;;21.38;74.72;99655.78;5069870;28;19923;-61
2023/05/21 07:52:17;;;;;;;;;;;;;;;21.41;74.47;99655.50;5068712;28;19955;-61
2023/05/21 07:54:42;;;;;;;;;;;;;;;21.43;74.79;99658.94;5069448;28;19916;-62
2023/05/21 07:57:07;;;;;;;;;;;;;;;21.61;75.05;99656.56;5069560;28;19912;-62
2023/05/21 07:59:32;;;;;;;;;;;;;;;21.73;74.76;99652.84;5069517;28;19917;-62
2023/05/21 08:01:58;;;;;;;;;;;;;;;21.75;74.18;99656.25;5068118;28;19942;-62
2023/05/21 08:04:23;;;;;;;;;;;;;;;21.89;73.57;99650.59;5069911;28;19912;-62
2023/05/21 08:06:48;;;;;;;;;;;;;;;22.05;73.14;99649.16;5068354;28;19970;-62
2023/05/21 08:09:14;;;;;;;;;;;;;;;22.00;72.61;99642.41;5068625;28;19912;-62
2023/05/21 08:11:39;;;;;;;;;;;;;;;22.19;71.46;99642.53;5051560;28;19912;-62
2023/05/21 08:14:04;;;;;;;;;;;;;;;22.39;72.69;99648.97;5069550;28;19913;-62
2023/05/21 08:16:30;;;;;;;;;;;;;;;22.49;71.96;99648.00;5065720;28;20307;-62
2023/05/21 08:18:55;;;;;;;;;;;;;;;22.59;71.16;99646.25;5051019;28;19962;-62
2023/05/21 08:21:21;;;;;;;;;;;;;;;22.67;70.45;99649.16;5068630;28;19916;-62
2023/05/21 08:23:46;;;;;;;;;;;;;;;22.56;71.02;99649.22;5067039;28;19919;-61
2023/05/21 08:26:11;;;;;;;;;;;;;;;22.64;69.65;99644.00;5069057;28;19995;-62
2023/05/21 08:28:37;;;;;;;;;;;;;;;22.63;69.33;99647.72;5049418;28;19912;-61
2023/05/21 08:31:03;;;;;;;;;;;;;;;22.79;70.59;99649.91;5068515;28;19912;-62
2023/05/21 08:33:28;;;;;;;;;;;;;;;22.91;70.29;99641.56;5068267;28;20589;-62
2023/05/21 08:35:53;;;;;;;;;;;;;;;22.99;68.74;99643.59;5068191;28;19912;-62
2023/05/21 08:38:18;;;;;;;;;;;;;;;23.11;70.72;99640.63;5067383;28;20557;-63
2023/05/21 08:40:45;;;;;;;;;;;;;;;23.29;69.44;99636.28;5068013;28;19923;-62
2023/05/21 08:43:12;;;;;;;;;;;;;;;23.33;68.26;99643.16;5069127;28;19908;-62
2023/05/21 08:45:41;;;;;;;;;;;;;;;23.34;67.52;99636.72;5068654;28;20346;-62
2023/05/21 08:48:07;;;;;;;;;;;;;;;23.34;68.82;99642.16;5068869;28;20290;-62
2023/05/21 08:50:33;;;;;;;;;;;;;;;23.39;67.91;99642.59;5069171;28;19957;-62
2023/05/21 08:52:59;;;;;;;;;;;;;;;23.58;67.12;99639.06;5069208;28;19908;-62
2023/05/21 08:55:25;;;;;;;;;;;;;;;23.64;68.24;99645.78;5067188;28;19920;-62
2023/05/21 08:57:52;;;;;;;;;;;;;;;23.66;66.41;99638.38;5051453;28;20339;-62
2023/05/21 09:00:19;;;;;;;;;;;;;;;23.96;67.74;99655.38;5048450;28;20031;-62
2023/05/21 09:02:45;;;;;;;;;;;;;;;24.04;65.73;99641.09;5063639;28;19923;-63
2023/05/21 09:05:11;;;;;;;;;;;;;;;24.29;65.87;99646.81;5049121;28;19909;-62
2023/05/21 09:07:45;;;;;;;;;;;;;;;24.33;66.30;99652.81;5056488;28;19923;-63
2023/05/21 09:10:11;;;;;;;;;;;;;;;24.45;64.90;99652.50;5060677;28;19912;-62
2023/05/21 09:12:37;;;;;;;;;;;;;;;24.82;65.59;99649.00;5068716;28;19912;-62
2023/05/21 09:15:03;;;;;;;;;;;;;;;24.73;64.27;99658.91;5067409;28;19923;-62
2023/05/21 09:17:28;;;;;;;;;;;;;;;25.03;63.59;99655.94;5068677;28;19912;-62
2023/05/21 09:20:15;;;;;;;;;;;;;;;25.39;62.54;99656.94;5068004;28;19921;-63
2023/05/21 09:23:01;;;;;;;;;;;;;;;25.65;62.05;99652.50;5071023;28;19991;-62
2023/05/21 09:25:29;;;;;;;;;;;;;;;25.77;60.34;99646.66;5071366;28;20027;-62
2023/05/21 09:27:55;;;;;;;;;;;;;;;25.88;62.54;99649.13;5072713;28;19919;-61
2023/05/21 09:30:20;;;;;;;;;;;;;;;25.85;61.40;99648.59;5071680;28;19916;-61
2023/05/21 09:32:50;;;;;;;;;;;;;;;25.81;60.61;99642.59;5066133;28;19984;-62
2023/05/21 09:35:16;;;;;;;;;;;;;;;25.97;59.92;99658.25;5071012;28;19927;-62
2023/05/21 09:37:46;;;;;;;;;;;;;;;26.06;59.44;99648.31;5071196;28;20035;-62
2023/05/21 09:40:15;;;;;;;;;;;;;;;26.25;57.86;99650.88;5060469;28;19990;-61
2023/05/21 09:42:42;;;;;;;;;;;;;;;26.66;57.71;99642.00;5070603;28;19912;-61
2023/05/21 09:45:08;;;;;;;;;;;;;;;26.97;59.94;99643.22;5070886;28;19931;-62
2023/05/21 09:47:39;;;;;;;;;;;;;;;27.53;57.10;99643.47;5070099;28;19912;-62
2023/05/21 09:50:05;;;;;;;;;;;;;;;27.95;53.66;99652.50;5071854;28;19920;-61
2023/05/21 09:52:30;;;;;;;;;;;;;;;27.87;51.95;99638.78;5060392;28;19938;-62
2023/05/21 09:54:56;;;;;;;;;;;;;;;28.00;53.50;99650.13;5071538;28;20331;-61
2023/05/21 09:57:25;;;;;;;;;;;;;;;28.22;54.47;99645.88;5058476;28;20392;-61
2023/05/21 09:59:50;;;;;;;;;;;;;;;28.27;54.72;99652.53;5060674;28;19920;-61
2023/05/21 10:02:18;;;;;;;;;;;;;;;27.78;52.42;99639.78;5061181;28;19980;-61
2023/05/21 10:04:46;;;;;;;;;;;;;;;27.78;54.98;99644.38;5076602;28;19935;-61
2023/05/21 10:07:12;;;;;;;;;;;;;;;27.75;49.99;99634.66;5076345;28;19916;-61
2023/05/21 10:09:38;;;;;;;;;;;;;;;27.92;52.14;99641.91;5076093;28;20486;-61
2023/05/21 10:12:03;;;;;;;;;;;;;;;28.05;53.24;99631.31;5075225;28;19958;-60
2023/05/21 10:14:30;;;;;;;;;;;;;;;28.27;50.72;99638.84;5075624;28;19912;-61
2023/05/21 10:16:56;;;;;;;;;;;;;;;28.59;50.31;99632.53;5073074;28;19912;-61
2023/05/21 10:19:22;;;;;;;;;;;;;;;29.08;50.17;99631.41;5077375;28;19991;-61
2023/05/21 10:21:48;;;;;;;;;;;;;;;29.74;50.37;99639.16;5074904;28;20587;-61
2023/05/21 10:24:14;;;;;;;;;;;;;;;30.33;47.73;99635.66;5073029;28;19916;-61
2023/05/21 10:26:40;;;;;;;;;;;;;;;30.70;45.09;99632.06;5074217;28;19908;-61
2023/05/21 10:29:06;;;;;;;;;;;;;;;31.01;44.64;99629.16;5075628;28;19916;-61
2023/05/21 10:31:32;;;;;;;;;;;;;;;31.12;44.42;99620.47;5075977;28;20054;-62
2023/05/21 10:33:57;;;;;;;;;;;;;;;31.16;42.57;99610.78;5076233;28;19912;-62
2023/05/21 10:36:24;;;;;;;;;;;;;;;31.04;43.03;99617.81;5074406;28;19912;-62
2023/05/21 10:38:49;;;;;;;;;;;;;;;31.25;42.57;99617.91;5073679;28;19919;-62
2023/05/21 10:41:16;;;;;;;;;;;;;;;31.46;41.92;99624.34;5073090;28;19916;-62
2023/05/21 10:44:01;;;;;;;;;;;;;;;31.67;42.20;99618.03;5071961;28;19985;-61
2023/05/21 10:46:41;;;;;;;;;;;;;;;31.65;40.57;99617.38;5074264;28;19918;-62
2023/05/21 10:49:22;;;;;;;;;;;;;;;31.81;42.38;99604.22;5056832;28;19924;-61
2023/05/21 10:51:50;;;;;;;;;;;;;;;31.70;41.04;99601.13;5074795;28;19918;-61
2023/05/21 10:54:19;;;;;;;;;;;;;;;31.80;42.51;99604.41;5073567;28;19970;-62
2023/05/21 10:56:53;;;;;;;;;;;;;;;31.83;40.60;99604.88;5077614;28;19912;-62
2023/05/21 10:59:20;;;;;;;;;;;;;;;31.70;40.73;99602.00;5077493;28;19916;-63
2023/05/21 11:01:48;;;;;;;;;;;;;;;31.93;39.26;99610.09;5077395;28;19923;-61
2023/05/21 11:04:16;;;;;;;;;;;;;;;31.75;40.76;99612.41;5076260;28;19916;-60
2023/05/21 11:06:46;;;;;;;;;;;;;;;31.60;42.33;99611.59;5076149;28;19955;-62
2023/05/21 11:09:12;;;;;;;;;;;;;;;31.93;41.92;99621.09;5076274;28;19908;-62
2023/05/21 11:11:42;;;;;;;;;;;;;;;31.96;40.45;99605.06;5076625;28;19916;-62
2023/05/21 11:14:25;;;;;;;;;;;;;;;32.07;39.56;99600.94;5075254;28;19908;-61
2023/05/21 11:16:51;;;;;;;;;;;;;;;32.20;39.89;99614.84;5058095;28;19993;-61
2023/05/21 11:19:16;;;;;;;;;;;;;;;32.22;40.37;99615.50;5077984;28;19985;-61
2023/05/21 11:21:42;;;;;;;;;;;;;;;32.39;39.78;99596.81;5077748;28;19916;-64
2023/05/21 11:24:09;;;;;;;;;;;;;;;32.62;39.57;99603.78;5079085;28;19916;-62
2023/05/21 11:26:46;;;;;;;;;;;;;;;32.78;39.52;99597.97;5076581;28;19916;-62
2023/05/21 11:29:12;;;;;;;;;;;;;;;32.37;38.95;99596.13;5078238;28;20050;-61
2023/05/21 11:31:37;;;;;;;;;;;;;;;32.52;39.67;99595.00;5076535;28;19916;-61
2023/05/21 11:34:13;;;;;;;;;;;;;;;32.46;39.46;99592.19;5078559;28;19912;-62
2023/05/21 11:36:43;;;;;;;;;;;;;;;32.75;39.89;99601.09;5078084;28;19942;-61
2023/05/21 11:39:10;;;;;;;;;;;;;;;33.03;40.12;99587.34;5078486;28;19955;-62
2023/05/21 11:41:54;;;;;;;;;;;;;;;33.22;39.44;99589.34;5076635;28;19916;-61
2023/05/21 11:44:38;;;;;;;;;;;;;;;33.26;39.06;99594.22;5076340;28;20194;-61
2023/05/21 11:47:04;;;;;;;;;;;;;;;32.99;40.03;99597.94;5077853;28;19912;-62
2023/05/21 11:49:30;;;;;;;;;;;;;;;33.28;38.72;99592.13;5077524;28;20046;-62
2023/05/21 11:51:56;;;;;;;;;;;;;;;33.32;39.67;99598.94;5076945;28;19913;-62
2023/05/21 11:54:25;;;;;;;;;;;;;;;33.34;38.20;99610.59;5078348;28;19976;-62
2023/05/21 11:56:51;;;;;;;;;;;;;;;33.21;39.45;99596.75;5078296;28;19920;-62
2023/05/21 11:59:17;;;;;;;;;;;;;;;33.47;39.53;99595.22;5080817;28;19916;-62
2023/05/21 12:01:43;;;;;;;;;;;;;;;33.68;38.10;99589.53;5077986;28;19932;-62
2023/05/21 12:04:09;;;;;;;;;;;;;;;33.70;38.77;99579.16;5075980;28;19916;-63
2023/05/21 12:06:35;;;;;;;;;;;;;;;33.43;38.08;99593.94;5076364;28;20002;-62
2023/05/21 12:09:00;;;;;;;;;;;;;;;33.27;38.71;99582.16;5075508;28;20410;-63
2023/05/21 12:11:26;;;;;;;;;;;;;;;33.47;39.45;99589.69;5072489;28;19912;-63
2023/05/21 12:13:51;;;;;;;;;;;;;;;33.62;38.59;99582.13;5074750;28;19924;-63
2023/05/21 12:16:16;;;;;;;;;;;;;;;33.64;38.65;99580.00;5075574;28;20134;-63
2023/05/21 12:18:42;;;;;;;;;;;;;;;33.54;38.65;99580.41;5075316;28;19916;-63
2023/05/21 12:21:07;;;;;;;;;;;;;;;33.43;38.70;99577.38;5077006;28;20711;-62
2023/05/21 12:23:33;;;;;;;;;;;;;;;33.77;38.84;99575.38;5074315;28;19999;-63
2023/05/21 12:25:58;;;;;;;;;;;;;;;34.39;39.17;99577.78;5074794;28;19915;-61
2023/05/21 12:28:24;;;;;;;;;;;;;;;34.70;38.88;99583.53;5075174;28;19919;-62
2023/05/21 12:30:49;;;;;;;;;;;;;;;34.47;36.35;99577.59;5075763;28;20002;-62
2023/05/21 12:33:16;;;;;;;;;;;;;;;34.23;37.41;99572.69;5076948;28;19919;-62
2023/05/21 12:35:45;;;;;;;;;;;;;;;34.05;37.03;99583.53;5076335;28;20323;-65
2023/05/21 12:38:10;;;;;;;;;;;;;;;33.53;38.66;99575.91;5078032;28;19912;-62
2023/05/21 12:40:36;;;;;;;;;;;;;;;33.52;38.81;99581.66;5078457;28;19916;-63
2023/05/21 12:43:02;;;;;;;;;;;;;;;33.70;38.58;99573.63;5076269;28;19916;-63